createdAt,value
2022-12-09T00:00:38.340Z,9.719129
2022-12-09T00:01:38.283Z,9.719173
2022-12-09T00:02:38.743Z,9.719208
2022-12-09T00:03:38.406Z,9.719118
2022-12-09T00:04:38.481Z,9.719120
2022-12-09T00:05:38.273Z,9.719108
2022-12-09T00:06:38.368Z,9.719320
2022-12-09T00:07:38.399Z,9.719294
2022-12-09T00:08:38.514Z,9.719178
2022-12-09T00:09:38.252Z,9.719209
2022-12-09T00:10:38.270Z,9.719168
2022-12-09T00:11:38.418Z,9.719080
2022-12-09T00:12:38.418Z,9.719150
2022-12-09T00:13:38.456Z,9.719099
2022-12-09T00:14:38.164Z,9.719072
2022-12-09T00:15:38.199Z,9.719093
2022-12-09T00:16:38.262Z,9.719108
2022-12-09T00:17:38.351Z,9.719146
2022-12-09T00:18:38.262Z,9.719159
2022-12-09T00:19:38.233Z,9.719195
2022-12-09T00:20:38.192Z,9.719202
2022-12-09T00:21:38.130Z,9.719261
2022-12-09T00:22:38.320Z,9.719248
2022-12-09T00:23:38.217Z,9.719269
2022-12-09T00:24:38.228Z,9.719269
2022-12-09T00:25:38.049Z,9.719233
2022-12-09T00:26:38.068Z,9.719210
2022-12-09T00:27:38.266Z,9.719172
2022-12-09T00:28:38.148Z,9.719045
2022-12-09T00:29:38.065Z,9.719028
2022-12-09T00:30:38.244Z,9.719178
2022-12-09T00:31:38.392Z,9.719233
2022-12-09T00:32:38.074Z,9.719074
2022-12-09T00:33:37.969Z,9.718911
2022-12-09T00:34:38.159Z,9.719001
2022-12-09T00:35:37.957Z,9.719105
2022-12-09T00:36:37.932Z,9.719217
2022-12-09T00:37:38.106Z,9.719112
2022-12-09T00:38:38.161Z,9.719012
2022-12-09T00:39:37.926Z,9.718988
2022-12-09T00:40:38.024Z,9.719044
2022-12-09T00:41:37.950Z,9.718908
2022-12-09T00:42:37.880Z,9.719038
2022-12-09T00:43:38.070Z,9.719155
2022-12-09T00:44:37.881Z,9.718871
2022-12-09T00:45:38.033Z,9.718679
2022-12-09T00:46:37.929Z,9.718672
2022-12-09T00:47:38.137Z,9.718710
2022-12-09T00:48:38.051Z,9.719180
2022-12-09T00:49:37.842Z,9.719302
2022-12-09T00:50:38.021Z,9.719294
2022-12-09T00:51:37.815Z,9.719057
2022-12-09T00:52:37.817Z,9.718970
2022-12-09T00:53:37.783Z,9.718844
2022-12-09T00:54:37.897Z,9.718938
2022-12-09T00:55:38.009Z,9.718883
2022-12-09T00:56:37.787Z,9.719212
2022-12-09T00:57:37.740Z,9.718956
2022-12-09T00:58:37.765Z,9.719087
2022-12-09T00:59:37.867Z,9.719227
2022-12-09T01:00:37.726Z,9.718983
2022-12-09T01:01:37.960Z,9.718988
2022-12-09T01:02:38.100Z,9.718825
2022-12-09T01:03:37.761Z,9.719172
2022-12-09T01:04:37.992Z,9.719089
2022-12-09T01:05:37.909Z,9.719027
2022-12-09T01:06:37.858Z,9.718875
2022-12-09T01:07:37.738Z,9.719297
2022-12-09T01:08:39.401Z,9.719487
2022-12-09T01:09:38.764Z,9.719172
2022-12-09T01:10:37.869Z,9.719097
2022-12-09T01:11:37.690Z,9.719127
2022-12-09T01:12:37.621Z,9.719282
2022-12-09T01:13:37.857Z,9.719151
2022-12-09T01:14:37.632Z,9.718933
2022-12-09T01:15:37.679Z,9.719084
2022-12-09T01:16:37.692Z,9.719161
2022-12-09T01:17:37.631Z,9.719140
2022-12-09T01:18:37.533Z,9.719101
2022-12-09T01:19:37.792Z,9.719116
2022-12-09T01:20:37.522Z,9.718966
2022-12-09T01:21:37.507Z,9.719111
2022-12-09T01:22:37.517Z,9.719206
2022-12-09T01:23:37.703Z,9.718993
2022-12-09T01:24:37.494Z,9.719223
2022-12-09T01:25:37.576Z,9.718958
2022-12-09T01:26:37.647Z,9.719158
2022-12-09T01:27:37.524Z,9.718841
2022-12-09T01:28:37.707Z,9.718912
2022-12-09T01:29:37.426Z,9.718912
2022-12-09T01:30:37.415Z,9.718863
2022-12-09T01:31:37.507Z,9.718994
2022-12-09T01:32:37.420Z,9.717929
2022-12-09T01:33:37.381Z,9.717929
2022-12-09T01:34:37.676Z,9.717929
2022-12-09T01:35:37.536Z,9.717929
2022-12-09T01:36:37.535Z,9.717929
2022-12-09T01:37:37.410Z,9.719469
2022-12-09T01:38:37.332Z,9.719533
2022-12-09T01:39:37.338Z,9.719533
2022-12-09T01:40:37.478Z,9.719533
2022-12-09T01:41:37.319Z,9.719399
2022-12-09T01:42:37.459Z,9.719464
2022-12-09T01:43:37.277Z,9.718769
2022-12-09T01:44:37.544Z,9.719378
2022-12-09T01:45:37.499Z,9.719258
2022-12-09T01:46:37.530Z,9.719242
2022-12-09T01:47:37.489Z,9.719027
2022-12-09T01:48:37.578Z,9.719152
2022-12-09T01:49:37.385Z,9.719171
2022-12-09T01:50:37.249Z,9.719054
2022-12-09T01:51:37.364Z,9.719115
2022-12-09T01:52:37.221Z,9.719227
2022-12-09T01:53:37.440Z,9.719391
2022-12-09T01:54:37.175Z,9.719176
2022-12-09T01:55:37.195Z,9.719107
2022-12-09T01:56:37.255Z,9.719363
2022-12-09T01:57:37.324Z,9.718950
2022-12-09T01:58:37.330Z,9.718847
2022-12-09T01:59:37.256Z,9.719051
2022-12-09T02:00:37.115Z,9.718830
2022-12-09T02:01:37.501Z,9.718720
2022-12-09T02:02:37.283Z,9.719075
2022-12-09T02:03:37.256Z,9.719120
2022-12-09T02:04:37.231Z,9.718820
2022-12-09T02:05:37.084Z,9.719008
2022-12-09T02:06:37.071Z,9.719118
2022-12-09T02:07:37.101Z,9.719065
2022-12-09T02:08:37.238Z,9.718991
2022-12-09T02:09:37.026Z,9.719040
2022-12-09T02:10:37.094Z,9.718815
2022-12-09T02:11:37.042Z,9.719099
2022-12-09T02:12:37.032Z,9.718995
2022-12-09T02:13:37.045Z,9.719085
2022-12-09T02:14:38.227Z,9.719130
2022-12-09T02:15:36.999Z,9.719132
2022-12-09T02:16:37.276Z,9.719211
2022-12-09T02:17:36.994Z,9.719090
2022-12-09T02:18:37.298Z,9.719175
2022-12-09T02:19:36.949Z,9.719128
2022-12-09T02:20:36.936Z,9.719120
2022-12-09T02:21:37.027Z,9.719066
2022-12-09T02:22:36.959Z,9.719082
2022-12-09T02:23:36.875Z,9.719028
2022-12-09T02:24:36.906Z,9.719054
2022-12-09T02:25:37.028Z,9.719007
2022-12-09T02:26:36.873Z,9.718959
2022-12-09T02:27:37.129Z,9.718824
2022-12-09T02:28:37.194Z,9.719014
2022-12-09T02:29:36.828Z,9.718941
2022-12-09T02:30:36.822Z,9.718986
2022-12-09T02:31:37.236Z,9.718940
2022-12-09T02:32:37.087Z,9.718919
2022-12-09T02:33:37.210Z,9.719056
2022-12-09T02:34:36.829Z,9.719071
2022-12-09T02:35:36.773Z,9.719082
2022-12-09T02:36:37.794Z,9.719139
2022-12-09T02:37:36.784Z,9.719274
2022-12-09T02:38:36.973Z,9.719047
2022-12-09T02:39:36.747Z,9.718951
2022-12-09T02:40:37.952Z,9.718947
2022-12-09T02:41:36.774Z,9.718882
2022-12-09T02:42:36.730Z,9.718913
2022-12-09T02:43:36.775Z,9.718939
2022-12-09T02:44:36.686Z,9.718932
2022-12-09T02:45:37.734Z,9.719053
2022-12-09T02:46:36.971Z,9.719033
2022-12-09T02:47:36.876Z,9.718892
2022-12-09T02:48:37.079Z,9.718820
2022-12-09T02:49:36.806Z,9.719038
2022-12-09T02:50:36.813Z,9.719061
2022-12-09T02:51:36.654Z,9.718977
2022-12-09T02:52:36.936Z,9.719024
2022-12-09T02:53:36.590Z,9.719042
2022-12-09T02:54:36.587Z,9.719131
2022-12-09T02:55:36.845Z,9.719079
2022-12-09T02:56:36.590Z,9.719019
2022-12-09T02:57:36.615Z,9.719001
2022-12-09T02:58:36.765Z,9.719159
2022-12-09T02:59:36.607Z,9.719131
2022-12-09T03:00:36.733Z,9.718926
2022-12-09T03:01:36.707Z,9.718982
2022-12-09T03:02:36.726Z,9.719003
2022-12-09T03:03:36.967Z,9.718998
2022-12-09T03:04:36.577Z,9.718528
2022-12-09T03:05:36.777Z,9.719234
2022-12-09T03:06:36.756Z,9.719501
2022-12-09T03:08:08.438Z,9.719637
2022-12-09T03:08:36.856Z,9.719435
2022-12-09T03:09:36.615Z,9.718619
2022-12-09T03:10:36.813Z,9.718851
2022-12-09T03:11:36.541Z,9.718579
2022-12-09T03:12:36.626Z,9.718534
2022-12-09T03:13:36.624Z,9.718510
2022-12-09T03:14:36.657Z,9.718510
2022-12-09T03:15:37.389Z,9.718838
2022-12-09T03:16:36.736Z,9.718684
2022-12-09T03:17:36.391Z,9.719090
2022-12-09T03:18:36.617Z,9.719232
2022-12-09T03:19:36.357Z,9.719455
2022-12-09T03:20:36.409Z,9.718993
2022-12-09T03:21:36.432Z,9.718576
2022-12-09T03:22:36.421Z,9.719007
2022-12-09T03:23:36.355Z,9.719248
2022-12-09T03:24:36.387Z,9.719217
2022-12-09T03:25:36.624Z,9.719312
2022-12-09T03:26:36.624Z,9.719341
2022-12-09T03:27:36.571Z,9.719481
2022-12-09T03:28:36.278Z,9.719326
2022-12-09T03:29:36.266Z,9.719036
2022-12-09T03:30:36.267Z,9.719055
2022-12-09T03:31:36.391Z,9.719091
2022-12-09T03:32:36.343Z,9.719008
2022-12-09T03:33:36.474Z,9.719081
2022-12-09T03:34:36.295Z,9.719089
2022-12-09T03:35:36.289Z,9.719115
2022-12-09T03:36:36.187Z,9.719175
2022-12-09T03:37:36.397Z,9.719041
2022-12-09T03:38:36.168Z,9.719103
2022-12-09T03:39:36.393Z,9.719102
2022-12-09T03:40:36.451Z,9.719072
2022-12-09T03:41:36.208Z,9.719100
2022-12-09T03:42:36.237Z,9.719158
2022-12-09T03:43:36.129Z,9.719050
2022-12-09T03:44:36.306Z,9.719066
2022-12-09T03:45:36.298Z,9.719159
2022-12-09T03:46:36.317Z,9.719175
2022-12-09T03:47:36.392Z,9.719152
2022-12-09T03:48:36.368Z,9.719134
2022-12-09T03:49:36.072Z,9.719087
2022-12-09T03:50:36.382Z,9.719154
2022-12-09T03:51:36.368Z,9.719070
2022-12-09T03:52:36.120Z,9.719125
2022-12-09T03:53:36.184Z,9.719020
2022-12-09T03:54:36.122Z,9.719187
2022-12-09T03:55:36.195Z,9.719101
2022-12-09T03:56:36.311Z,9.719136
2022-12-09T03:57:36.322Z,9.719216
2022-12-09T03:58:35.989Z,9.719119
2022-12-09T03:59:36.015Z,9.719117
2022-12-09T04:00:36.099Z,9.719169
2022-12-09T04:01:36.294Z,9.719044
2022-12-09T04:02:36.053Z,9.719073
2022-12-09T04:03:36.129Z,9.719022
2022-12-09T04:04:36.033Z,9.719136
2022-12-09T04:05:35.952Z,9.719277
2022-12-09T04:06:35.872Z,9.719131
2022-12-09T04:07:35.929Z,9.719171
2022-12-09T04:08:35.916Z,9.719194
2022-12-09T04:09:36.056Z,9.719198
2022-12-09T04:10:35.872Z,9.719139
2022-12-09T04:11:36.185Z,9.719149
2022-12-09T04:12:35.956Z,9.719157
2022-12-09T04:13:35.846Z,9.718975
2022-12-09T04:14:35.892Z,9.718904
2022-12-09T04:15:36.062Z,9.719256
2022-12-09T04:16:36.099Z,9.719274
2022-12-09T04:17:35.948Z,9.719326
2022-12-09T04:18:35.906Z,9.719343
2022-12-09T04:19:35.943Z,9.719166
2022-12-09T04:20:35.790Z,9.719257
2022-12-09T04:21:35.901Z,9.719282
2022-12-09T04:22:35.800Z,9.719225
2022-12-09T04:23:40.991Z,9.719368
2022-12-09T04:24:36.947Z,9.719374
2022-12-09T04:25:36.089Z,9.719146
2022-12-09T04:26:35.716Z,9.719214
2022-12-09T04:27:35.756Z,9.719401
2022-12-09T04:28:36.736Z,9.719191
2022-12-09T04:29:35.776Z,9.719254
2022-12-09T04:30:36.037Z,9.719259
2022-12-09T04:31:35.915Z,9.719381
2022-12-09T04:32:35.803Z,9.719275
2022-12-09T04:33:35.748Z,9.719260
2022-12-09T04:34:35.635Z,9.719254
2022-12-09T04:35:35.614Z,9.719232
2022-12-09T04:36:35.660Z,9.719089
2022-12-09T04:37:35.629Z,9.719069
2022-12-09T04:38:35.629Z,9.719099
2022-12-09T04:39:36.054Z,9.718993
2022-12-09T04:40:35.598Z,9.719094
2022-12-09T04:41:35.544Z,9.719056
2022-12-09T04:42:35.994Z,9.719209
2022-12-09T04:43:35.727Z,9.719247
2022-12-09T04:44:35.825Z,9.719511
2022-12-09T04:45:35.698Z,9.719180
2022-12-09T04:46:35.886Z,9.719219
2022-12-09T04:47:35.959Z,9.719204
2022-12-09T04:48:35.615Z,9.719031
2022-12-09T04:49:35.660Z,9.719082
2022-12-09T04:50:35.815Z,9.719039
2022-12-09T04:51:39.435Z,9.719044
2022-12-09T04:52:36.764Z,9.718928
2022-12-09T04:53:35.682Z,9.718955
2022-12-09T04:54:35.653Z,9.719040
2022-12-09T04:55:35.463Z,9.719065
2022-12-09T04:56:35.410Z,9.719119
2022-12-09T04:57:35.423Z,9.719052
2022-12-09T04:58:35.535Z,9.719032
2022-12-09T04:59:35.542Z,9.719124
2022-12-09T05:00:35.548Z,9.719069
2022-12-09T05:01:35.569Z,9.719084
2022-12-09T05:02:35.659Z,9.719073
2022-12-09T05:03:35.443Z,9.719090
2022-12-09T05:04:35.871Z,9.719154
2022-12-09T05:05:35.604Z,9.719093
2022-12-09T05:06:35.429Z,9.719110
2022-12-09T05:07:35.728Z,9.719103
2022-12-09T05:08:35.845Z,9.719124
2022-12-09T05:09:35.333Z,9.719119
2022-12-09T05:10:35.523Z,9.719225
2022-12-09T05:11:35.391Z,9.719076
2022-12-09T05:12:35.500Z,9.718993
2022-12-09T05:13:35.351Z,9.719136
2022-12-09T05:14:35.632Z,9.719176
2022-12-09T05:15:35.650Z,9.719206
2022-12-09T05:16:35.280Z,9.719224
2022-12-09T05:17:35.262Z,9.719167
2022-12-09T05:18:35.377Z,9.719110
2022-12-09T05:19:35.571Z,9.718646
2022-12-09T05:20:35.445Z,9.719130
2022-12-09T05:21:35.247Z,9.719218
2022-12-09T05:22:35.282Z,9.719114
2022-12-09T05:23:35.178Z,9.719108
2022-12-09T05:24:35.362Z,9.719212
2022-12-09T05:25:35.148Z,9.719397
2022-12-09T05:26:35.175Z,9.719517
2022-12-09T05:27:35.492Z,9.719261
2022-12-09T05:28:35.514Z,9.719181
2022-12-09T05:29:35.181Z,9.719148
2022-12-09T05:30:35.268Z,9.719292
2022-12-09T05:31:35.544Z,9.719174
2022-12-09T05:32:35.097Z,9.719337
2022-12-09T05:33:35.242Z,9.719367
2022-12-09T05:34:35.236Z,9.719316
2022-12-09T05:35:42.573Z,9.719330
2022-12-09T05:36:37.088Z,9.719337
2022-12-09T05:37:35.101Z,9.719240
2022-12-09T05:38:35.404Z,9.719405
2022-12-09T05:39:35.106Z,9.719327
2022-12-09T05:40:35.352Z,9.719436
2022-12-09T05:41:35.394Z,9.719463
2022-12-09T05:42:40.938Z,9.719458
2022-12-09T05:43:36.219Z,9.719378
2022-12-09T05:44:35.027Z,9.719445
2022-12-09T05:45:35.072Z,9.719248
2022-12-09T05:46:35.300Z,9.719249
2022-12-09T05:47:35.358Z,9.719465
2022-12-09T05:48:35.380Z,9.719419
2022-12-09T05:49:35.473Z,9.719808
2022-12-09T05:50:34.892Z,9.719699
2022-12-09T05:51:35.145Z,9.719503
2022-12-09T05:52:35.207Z,9.719349
2022-12-09T05:53:35.294Z,9.719039
2022-12-09T05:54:35.282Z,9.719154
2022-12-09T05:55:35.096Z,9.719021
2022-12-09T05:56:35.173Z,9.719318
2022-12-09T05:57:35.127Z,9.719384
2022-12-09T05:58:34.980Z,9.719142
2022-12-09T05:59:34.938Z,9.719167
2022-12-09T06:00:34.784Z,9.719362
2022-12-09T06:01:35.324Z,9.719225
2022-12-09T06:02:34.949Z,9.719555
2022-12-09T06:03:35.133Z,9.719523
2022-12-09T06:04:35.033Z,9.719605
2022-12-09T06:05:35.263Z,9.719240
2022-12-09T06:06:35.025Z,9.719119
2022-12-09T06:07:35.016Z,9.719218
2022-12-09T06:08:34.867Z,9.719324
2022-12-09T06:09:34.797Z,9.719382
2022-12-09T06:10:34.938Z,9.719206
2022-12-09T06:11:34.891Z,9.719224
2022-12-09T06:12:35.053Z,9.719379
2022-12-09T06:13:34.735Z,9.719437
2022-12-09T06:14:34.844Z,9.719459
2022-12-09T06:15:35.107Z,9.719439
2022-12-09T06:16:34.871Z,9.719306
2022-12-09T06:17:35.018Z,9.719305
2022-12-09T06:18:35.255Z,9.719344
2022-12-09T06:19:35.074Z,9.719457
2022-12-09T06:20:34.831Z,9.719221
2022-12-09T06:21:34.750Z,9.719316
2022-12-09T06:22:34.608Z,9.719314
2022-12-09T06:23:34.881Z,9.719234
2022-12-09T06:24:34.627Z,9.719287
2022-12-09T06:25:34.947Z,9.719360
2022-12-09T06:26:34.929Z,9.719266
2022-12-09T06:27:34.529Z,9.719181
2022-12-09T06:28:34.741Z,9.719248
2022-12-09T06:29:34.829Z,9.719074
2022-12-09T06:30:34.825Z,9.719026
2022-12-09T06:31:34.976Z,9.719207
2022-12-09T06:32:34.620Z,9.719312
2022-12-09T06:33:54.261Z,9.719431
2022-12-09T06:34:35.747Z,9.719524
2022-12-09T06:35:36.074Z,9.719332
2022-12-09T06:36:34.507Z,9.719349
2022-12-09T06:37:34.437Z,9.719285
2022-12-09T06:38:34.675Z,9.719152
2022-12-09T06:39:34.803Z,9.719185
2022-12-09T06:40:34.669Z,9.719318
2022-12-09T06:41:34.592Z,9.719361
2022-12-09T06:42:34.852Z,9.719259
2022-12-09T06:43:34.612Z,9.719189
2022-12-09T06:44:34.767Z,9.719112
2022-12-09T06:45:34.404Z,9.719186
2022-12-09T06:46:34.537Z,9.719249
2022-12-09T06:47:34.605Z,9.719120
2022-12-09T06:48:34.589Z,9.719171
2022-12-09T06:49:34.532Z,9.719108
2022-12-09T06:50:34.368Z,9.719230
2022-12-09T06:51:34.495Z,9.719113
2022-12-09T06:52:34.501Z,9.718959
2022-12-09T06:53:34.301Z,9.719119
2022-12-09T06:54:34.670Z,9.719030
2022-12-09T06:55:34.366Z,9.719203
2022-12-09T06:56:34.585Z,9.719246
2022-12-09T06:57:34.556Z,9.719345
2022-12-09T06:58:34.448Z,9.719180
2022-12-09T06:59:34.602Z,9.719057
2022-12-09T07:00:34.547Z,9.719158
2022-12-09T07:01:34.427Z,9.719096
2022-12-09T07:02:36.071Z,9.719171
2022-12-09T07:03:35.643Z,9.718926
2022-12-09T07:04:34.471Z,9.719167
2022-12-09T07:05:34.439Z,9.719114
2022-12-09T07:06:34.541Z,9.719285
2022-12-09T07:07:34.500Z,9.719250
2022-12-09T07:08:34.294Z,9.719164
2022-12-09T07:09:34.197Z,9.719242
2022-12-09T07:10:34.505Z,9.719263
2022-12-09T07:11:34.372Z,9.719176
2022-12-09T07:12:34.160Z,9.719193
2022-12-09T07:13:34.425Z,9.719129
2022-12-09T07:14:34.400Z,9.719335
2022-12-09T07:15:34.172Z,9.719214
2022-12-09T07:16:34.414Z,9.719251
2022-12-09T07:17:35.404Z,9.719205
2022-12-09T07:18:34.439Z,9.719181
2022-12-09T07:19:34.537Z,9.719298
2022-12-09T07:20:34.023Z,9.719272
2022-12-09T07:21:34.503Z,9.719307
2022-12-09T07:22:34.310Z,9.719335
2022-12-09T07:23:34.167Z,9.719269
2022-12-09T07:24:34.055Z,9.719374
2022-12-09T07:25:34.318Z,9.719290
2022-12-09T07:26:34.447Z,9.718884
2022-12-09T07:27:33.967Z,9.719379
2022-12-09T07:28:33.996Z,9.719232
2022-12-09T07:29:34.223Z,9.719265
2022-12-09T07:30:34.008Z,9.719254
2022-12-09T07:31:34.470Z,9.719339
2022-12-09T07:32:33.997Z,9.719508
2022-12-09T07:33:34.369Z,9.719396
2022-12-09T07:34:34.160Z,9.719431
2022-12-09T07:35:34.044Z,9.719479
2022-12-09T07:36:33.863Z,9.719398
2022-12-09T07:37:34.238Z,9.719328
2022-12-09T07:38:34.033Z,9.719195
2022-12-09T07:39:34.149Z,9.719428
2022-12-09T07:40:34.132Z,9.719278
2022-12-09T07:41:33.853Z,9.719241
2022-12-09T07:42:34.182Z,9.719252
2022-12-09T07:43:34.180Z,9.719153
2022-12-09T07:44:33.826Z,9.719028
2022-12-09T07:45:34.220Z,9.719120
2022-12-09T07:46:34.105Z,9.719143
2022-12-09T07:47:34.199Z,9.719200
2022-12-09T07:48:34.283Z,9.719298
2022-12-09T07:49:34.183Z,9.719203
2022-12-09T07:50:33.882Z,9.719302
2022-12-09T07:51:34.178Z,9.719290
2022-12-09T07:52:33.855Z,9.719241
2022-12-09T07:53:33.921Z,9.719276
2022-12-09T07:54:33.818Z,9.719200
2022-12-09T07:55:34.015Z,9.719182
2022-12-09T07:56:33.774Z,9.719127
2022-12-09T07:57:34.107Z,9.719215
2022-12-09T07:58:33.705Z,9.719200
2022-12-09T07:59:33.699Z,9.719205
2022-12-09T08:00:34.049Z,9.719174
2022-12-09T08:01:33.822Z,9.719214
2022-12-09T08:02:33.711Z,9.719196
2022-12-09T08:03:34.147Z,9.719237
2022-12-09T08:04:33.826Z,9.719114
2022-12-09T08:05:33.855Z,9.719194
2022-12-09T08:06:34.062Z,9.719188
2022-12-09T08:07:37.327Z,9.719215
2022-12-09T08:08:33.944Z,9.719204
2022-12-09T08:09:33.931Z,9.719204
2022-12-09T08:10:33.958Z,9.719256
2022-12-09T08:11:34.088Z,9.719266
2022-12-09T08:12:33.856Z,9.719197
2022-12-09T08:13:33.603Z,9.719260
2022-12-09T08:14:33.603Z,9.719122
2022-12-09T08:15:33.505Z,9.719144
2022-12-09T08:16:33.657Z,9.719322
2022-12-09T08:17:33.666Z,9.719311
2022-12-09T08:18:33.656Z,9.719212
2022-12-09T08:19:33.910Z,9.719318
2022-12-09T08:20:33.636Z,9.719575
2022-12-09T08:21:33.572Z,9.719583
2022-12-09T08:22:33.673Z,9.719467
2022-12-09T08:23:33.615Z,9.719488
2022-12-09T08:24:34.074Z,9.719411
2022-12-09T08:25:33.871Z,9.719401
2022-12-09T08:26:34.016Z,9.719316
2022-12-09T08:27:33.722Z,9.719141
2022-12-09T08:28:34.127Z,9.719097
2022-12-09T08:29:33.663Z,9.719156
2022-12-09T08:30:33.589Z,9.719197
2022-12-09T08:31:38.752Z,9.719244
2022-12-09T08:32:35.735Z,9.719292
2022-12-09T08:33:33.545Z,9.719284
2022-12-09T08:34:33.421Z,9.719235
2022-12-09T08:35:33.777Z,9.719239
2022-12-09T08:36:33.282Z,9.719212
2022-12-09T08:37:33.348Z,9.719205
2022-12-09T08:38:33.366Z,9.719205
2022-12-09T08:39:33.698Z,9.719205
2022-12-09T08:40:33.695Z,9.719205
2022-12-09T08:41:33.369Z,9.719205
2022-12-09T08:42:33.487Z,9.719205
2022-12-09T08:43:33.272Z,9.719205
2022-12-09T08:44:33.595Z,9.719205
2022-12-09T08:45:33.257Z,9.719205
2022-12-09T08:46:33.805Z,9.719205
2022-12-09T08:47:33.766Z,9.719205
2022-12-09T08:48:33.581Z,9.718884
2022-12-09T08:49:33.366Z,9.719008
2022-12-09T08:50:34.269Z,9.719039
2022-12-09T08:51:33.272Z,9.719048
2022-12-09T08:52:37.243Z,9.719072
2022-12-09T08:53:34.350Z,9.719187
2022-12-09T08:54:33.310Z,9.719259
2022-12-09T08:55:33.377Z,9.719160
2022-12-09T08:56:33.530Z,9.719250
2022-12-09T08:57:34.518Z,9.719337
2022-12-09T08:58:33.482Z,9.719436
2022-12-09T08:59:33.479Z,9.719420
2022-12-09T09:00:33.066Z,9.719358
2022-12-09T09:01:34.445Z,9.719229
2022-12-09T09:02:34.473Z,9.719434
2022-12-09T09:03:33.325Z,9.719360
2022-12-09T09:04:34.721Z,9.719280
2022-12-09T09:05:33.209Z,9.719238
2022-12-09T09:06:33.227Z,9.719283
2022-12-09T09:08:04.970Z,9.719246
2022-12-09T09:08:33.029Z,9.719361
2022-12-09T09:09:33.277Z,9.719380
2022-12-09T09:10:33.396Z,9.719481
2022-12-09T09:11:33.374Z,9.719618
2022-12-09T09:12:42.097Z,9.719494
2022-12-09T09:13:35.351Z,9.719339
2022-12-09T09:14:32.921Z,9.719153
2022-12-09T09:15:32.994Z,9.719115
2022-12-09T09:16:33.036Z,9.719234
2022-12-09T09:17:33.261Z,9.719234
2022-12-09T09:18:33.351Z,9.719234
2022-12-09T09:19:33.405Z,9.719234
2022-12-09T09:20:32.930Z,9.719234
2022-12-09T09:21:33.108Z,9.719234
2022-12-09T09:22:33.327Z,9.719234
2022-12-09T09:23:33.309Z,9.719234
2022-12-09T09:24:33.226Z,9.719234
2022-12-09T09:25:33.226Z,9.719234
2022-12-09T09:26:33.025Z,9.719234
2022-12-09T09:27:33.505Z,9.719298
2022-12-09T09:28:32.851Z,9.719154
2022-12-09T09:29:33.009Z,9.719126
2022-12-09T09:30:33.112Z,9.719147
2022-12-09T09:31:32.887Z,9.719025
2022-12-09T09:32:33.015Z,9.719094
2022-12-09T09:33:33.229Z,9.719003
2022-12-09T09:34:32.798Z,9.718872
2022-12-09T09:35:32.992Z,9.718635
2022-12-09T09:36:32.774Z,9.718635
2022-12-09T09:37:33.030Z,9.719389
2022-12-09T09:38:32.852Z,9.719243
2022-12-09T09:39:32.872Z,9.719214
2022-12-09T09:40:33.173Z,9.719151
2022-12-09T09:41:32.694Z,9.719181
2022-12-09T09:42:32.631Z,9.719189
2022-12-09T09:43:32.844Z,9.719119
2022-12-09T09:44:33.082Z,9.719285
2022-12-09T09:45:32.660Z,9.719203
2022-12-09T09:46:34.272Z,9.719318
2022-12-09T09:47:37.763Z,9.719124
2022-12-09T09:48:36.121Z,9.719316
2022-12-09T09:49:34.660Z,9.719260
2022-12-09T09:50:33.831Z,9.719131
2022-12-09T09:51:34.376Z,9.719139
2022-12-09T09:52:33.682Z,9.719230
2022-12-09T09:53:32.871Z,9.719131
2022-12-09T09:54:32.987Z,9.719103
2022-12-09T09:55:32.554Z,9.718960
2022-12-09T09:56:32.631Z,9.718925
2022-12-09T09:57:32.684Z,9.718913
2022-12-09T09:58:32.589Z,9.719294
2022-12-09T09:59:32.631Z,9.719359
2022-12-09T10:00:32.654Z,9.719584
2022-12-09T10:01:32.804Z,9.719411
2022-12-09T10:02:33.160Z,9.719417
2022-12-09T10:03:32.723Z,9.719300
2022-12-09T10:04:32.577Z,9.719494
2022-12-09T10:05:32.996Z,9.719479
2022-12-09T10:06:33.013Z,9.719480
2022-12-09T10:07:32.736Z,9.719604
2022-12-09T10:08:32.762Z,9.719479
2022-12-09T10:09:32.607Z,9.719455
2022-12-09T10:10:32.541Z,9.719634
2022-12-09T10:11:33.063Z,9.719958
2022-12-09T10:12:32.781Z,9.719630
2022-12-09T10:13:33.016Z,9.719675
2022-12-09T10:14:32.540Z,9.719571
2022-12-09T10:15:32.641Z,9.719659
2022-12-09T10:16:33.788Z,9.719403
2022-12-09T10:17:32.513Z,9.719602
2022-12-09T10:18:32.827Z,9.719497
2022-12-09T10:19:32.805Z,9.719438
2022-12-09T10:20:32.643Z,9.719441
2022-12-09T10:21:32.695Z,9.719420
2022-12-09T10:22:32.389Z,9.719563
2022-12-09T10:23:32.371Z,9.719606
2022-12-09T10:24:38.684Z,9.719532
2022-12-09T10:25:34.661Z,9.719515
2022-12-09T10:26:32.759Z,9.719449
2022-12-09T10:27:32.358Z,9.719411
2022-12-09T10:28:32.580Z,9.719458
2022-12-09T10:29:32.292Z,9.719476
2022-12-09T10:30:39.769Z,9.719475
2022-12-09T10:31:34.449Z,9.719571
2022-12-09T10:32:32.515Z,9.719595
2022-12-09T10:33:32.440Z,9.719548
2022-12-09T10:34:32.204Z,9.719460
2022-12-09T10:35:32.565Z,9.719521
2022-12-09T10:36:35.700Z,9.719455
2022-12-09T10:37:33.192Z,9.719480
2022-12-09T10:38:32.407Z,9.719376
2022-12-09T10:39:32.325Z,9.719512
2022-12-09T10:40:32.219Z,9.719423
2022-12-09T10:41:32.204Z,9.719542
2022-12-09T10:42:35.215Z,9.719429
2022-12-09T10:43:33.170Z,9.719501
2022-12-09T10:44:32.115Z,9.719521
2022-12-09T10:45:52.561Z,9.719415
2022-12-09T10:46:34.136Z,9.719489
2022-12-09T10:47:32.416Z,9.719440
2022-12-09T10:48:33.376Z,9.719414
2022-12-09T10:49:33.108Z,9.719397
2022-12-09T10:50:32.454Z,9.719385
2022-12-09T10:51:32.076Z,9.719204
2022-12-09T10:52:32.477Z,9.719384
2022-12-09T10:53:31.943Z,9.719289
2022-12-09T10:54:32.328Z,9.719351
2022-12-09T10:55:32.156Z,9.719277
2022-12-09T10:56:32.418Z,9.719372
2022-12-09T10:57:32.075Z,9.719348
2022-12-09T10:58:31.989Z,9.719358
2022-12-09T10:59:32.163Z,9.719308
2022-12-09T11:00:35.051Z,9.719321
2022-12-09T11:01:33.054Z,9.719277
2022-12-09T11:02:31.987Z,9.719316
2022-12-09T11:03:32.410Z,9.719285
2022-12-09T11:04:32.037Z,9.719258
2022-12-09T11:05:32.043Z,9.719171
2022-12-09T11:06:32.275Z,9.719245
2022-12-09T11:07:32.196Z,9.719195
2022-12-09T11:08:32.195Z,9.719268
2022-12-09T11:09:32.255Z,9.719202
2022-12-09T11:10:32.319Z,9.718951
2022-12-09T11:11:32.257Z,9.719044
2022-12-09T11:12:38.496Z,9.719072
2022-12-09T11:13:33.021Z,9.719324
2022-12-09T11:14:31.956Z,9.719601
2022-12-09T11:15:32.415Z,9.719468
2022-12-09T11:16:32.171Z,9.719427
2022-12-09T11:17:31.915Z,9.718845
2022-12-09T11:18:32.063Z,9.719239
2022-12-09T11:19:31.840Z,9.719271
2022-12-09T11:20:31.919Z,9.720214
2022-12-09T11:21:31.880Z,9.719161
2022-12-09T11:22:31.865Z,9.719178
2022-12-09T11:23:31.855Z,9.719199
2022-12-09T11:24:31.820Z,9.719180
2022-12-09T11:25:31.817Z,9.719166
2022-12-09T11:26:31.703Z,9.719116
2022-12-09T11:27:31.892Z,9.719145
2022-12-09T11:28:31.981Z,9.719170
2022-12-09T11:29:31.909Z,9.719138
2022-12-09T11:30:31.916Z,9.719110
2022-12-09T11:31:33.393Z,9.719099
2022-12-09T11:32:33.126Z,9.719111
2022-12-09T11:33:31.737Z,9.719137
2022-12-09T11:34:31.751Z,9.719057
2022-12-09T11:35:32.148Z,9.719103
2022-12-09T11:36:31.634Z,9.719177
2022-12-09T11:37:31.503Z,9.719181
2022-12-09T11:38:31.510Z,9.719212
2022-12-09T11:39:31.505Z,9.719211
2022-12-09T11:40:31.646Z,9.719201
2022-12-09T11:41:31.455Z,9.719182
2022-12-09T11:42:31.462Z,9.719171
2022-12-09T11:43:31.441Z,9.719157
2022-12-09T11:44:31.427Z,9.719184